You are not logged in, Click here to log in
ICAO: RJTO Country: 東京都大島町(伊豆大島)
Latitude: 34.7819 Longitude: 139.36
Total Arrivals: 5 Total Departures: 2
Latest Arrival: EHF692 (RJAA-RJTO)KE. CHIH-HAO Latest Departure: K5LQ964 (RJTO-RJNT)Stone. Chang
Scenery:
METAR : RJTO 210700Z 23003KT 190V280 9999 FEW020 BKN/// 29/25 Q1009

大島空港OIM